sensor_id;sensor_type;location;lat;lon;timestamp;temperature;humidity
46652;DHT22;32377;52.182;5.398;2023-07-20T00:02:20;16.80;99.90
46652;DHT22;32377;52.182;5.398;2023-07-20T00:04:46;16.80;99.90
46652;DHT22;32377;52.182;5.398;2023-07-20T00:07:11;16.90;99.90
46652;DHT22;32377;52.182;5.398;2023-07-20T00:09:37;16.80;99.90
46652;DHT22;32377;52.182;5.398;2023-07-20T00:12:03;16.70;99.90
46652;DHT22;32377;52.182;5.398;2023-07-20T00:14:28;16.70;99.90
46652;DHT22;32377;52.182;5.398;2023-07-20T00:16:55;16.80;99.90
46652;DHT22;32377;52.182;5.398;2023-07-20T00:19:23;16.60;99.90
46652;DHT22;32377;52.182;5.398;2023-07-20T00:21:49;16.60;99.90
46652;DHT22;32377;52.182;5.398;2023-07-20T00:24:14;16.60;99.90
46652;DHT22;32377;52.182;5.398;2023-07-20T00:26:40;16.60;99.90
46652;DHT22;32377;52.182;5.398;2023-07-20T00:29:05;16.50;99.90
46652;DHT22;32377;52.182;5.398;2023-07-20T00:31:31;16.50;99.90
46652;DHT22;32377;52.182;5.398;2023-07-20T00:33:57;16.40;99.90
46652;DHT22;32377;52.182;5.398;2023-07-20T00:36:22;16.40;99.90
46652;DHT22;32377;52.182;5.398;2023-07-20T00:38:48;16.40;99.90
46652;DHT22;32377;52.182;5.398;2023-07-20T00:41:13;16.40;99.90
46652;DHT22;32377;52.182;5.398;2023-07-20T00:43:40;16.40;99.90
46652;DHT22;32377;52.182;5.398;2023-07-20T00:46:05;16.30;99.90
46652;DHT22;32377;52.182;5.398;2023-07-20T00:48:32;16.20;99.90
46652;DHT22;32377;52.182;5.398;2023-07-20T00:50:59;16.20;99.90
46652;DHT22;32377;52.182;5.398;2023-07-20T00:53:25;16.20;99.90
46652;DHT22;32377;52.182;5.398;2023-07-20T00:55:51;16.10;99.90
46652;DHT22;32377;52.182;5.398;2023-07-20T00:58:17;16.10;99.90
46652;DHT22;32377;52.182;5.398;2023-07-20T01:00:43;16.00;99.90
46652;DHT22;32377;52.182;5.398;2023-07-20T01:03:08;16.00;99.90
46652;DHT22;32377;52.182;5.398;2023-07-20T01:05:59;16.00;99.90
46652;DHT22;32377;52.182;5.398;2023-07-20T01:14:35;15.90;99.90
46652;DHT22;32377;52.182;5.398;2023-07-20T01:17:02;15.90;99.90
46652;DHT22;32377;52.182;5.398;2023-07-20T01:19:27;16.00;99.90
46652;DHT22;32377;52.182;5.398;2023-07-20T01:25:34;15.90;99.90
46652;DHT22;32377;52.182;5.398;2023-07-20T01:33:15;15.80;99.90
46652;DHT22;32377;52.182;5.398;2023-07-20T01:35:43;15.70;99.90
46652;DHT22;32377;52.182;5.398;2023-07-20T01:38:11;15.60;99.90
46652;DHT22;32377;52.182;5.398;2023-07-20T01:40:38;15.70;99.90
46652;DHT22;32377;52.182;5.398;2023-07-20T01:43:03;15.70;99.90
46652;DHT22;32377;52.182;5.398;2023-07-20T01:45:29;15.60;99.90
46652;DHT22;32377;52.182;5.398;2023-07-20T01:47:55;15.60;99.90
46652;DHT22;32377;52.182;5.398;2023-07-20T01:50:20;15.60;99.90
46652;DHT22;32377;52.182;5.398;2023-07-20T01:52:46;15.60;99.90
46652;DHT22;32377;52.182;5.398;2023-07-20T01:55:12;15.50;99.90
46652;DHT22;32377;52.182;5.398;2023-07-20T01:57:37;15.50;99.90
46652;DHT22;32377;52.182;5.398;2023-07-20T02:00:03;15.40;99.90
46652;DHT22;32377;52.182;5.398;2023-07-20T02:02:29;15.40;99.90
46652;DHT22;32377;52.182;5.398;2023-07-20T02:04:55;15.40;99.90
46652;DHT22;32377;52.182;5.398;2023-07-20T02:07:20;15.40;99.90
46652;DHT22;32377;52.182;5.398;2023-07-20T02:09:46;15.40;99.90
46652;DHT22;32377;52.182;5.398;2023-07-20T02:12:12;15.50;99.90
46652;DHT22;32377;52.182;5.398;2023-07-20T02:14:37;15.50;99.90
46652;DHT22;32377;52.182;5.398;2023-07-20T02:17:03;15.60;99.90
46652;DHT22;32377;52.182;5.398;2023-07-20T02:19:30;15.60;99.90
46652;DHT22;32377;52.182;5.398;2023-07-20T02:21:55;15.50;99.90
46652;DHT22;32377;52.182;5.398;2023-07-20T02:24:21;15.50;99.90
46652;DHT22;32377;52.182;5.398;2023-07-20T02:26:46;15.50;99.90
46652;DHT22;32377;52.182;5.398;2023-07-20T02:29:12;15.50;99.90
46652;DHT22;32377;52.182;5.398;2023-07-20T02:31:38;15.40;99.90
46652;DHT22;32377;52.182;5.398;2023-07-20T02:34:05;15.40;99.90
46652;DHT22;32377;52.182;5.398;2023-07-20T02:36:31;15.40;99.90
46652;DHT22;32377;52.182;5.398;2023-07-20T02:38:58;15.30;99.90
46652;DHT22;32377;52.182;5.398;2023-07-20T02:41:24;15.30;99.90
46652;DHT22;32377;52.182;5.398;2023-07-20T02:43:50;15.20;99.90
46652;DHT22;32377;52.182;5.398;2023-07-20T02:46:15;15.20;99.90
46652;DHT22;32377;52.182;5.398;2023-07-20T02:48:41;15.20;99.90
46652;DHT22;32377;52.182;5.398;2023-07-20T02:51:06;15.10;99.90
46652;DHT22;32377;52.182;5.398;2023-07-20T02:53:33;15.10;99.90
46652;DHT22;32377;52.182;5.398;2023-07-20T02:55:59;15.10;99.90
46652;DHT22;32377;52.182;5.398;2023-07-20T02:58:24;15.00;99.90
46652;DHT22;32377;52.182;5.398;2023-07-20T03:00:50;15.00;99.90
46652;DHT22;32377;52.182;5.398;2023-07-20T03:03:16;15.00;99.90
46652;DHT22;32377;52.182;5.398;2023-07-20T03:05:41;15.00;99.90
46652;DHT22;32377;52.182;5.398;2023-07-20T03:08:07;15.00;99.90
46652;DHT22;32377;52.182;5.398;2023-07-20T03:10:38;15.00;99.90
46652;DHT22;32377;52.182;5.398;2023-07-20T03:13:03;14.90;99.90
46652;DHT22;32377;52.182;5.398;2023-07-20T03:15:29;14.80;99.90
46652;DHT22;32377;52.182;5.398;2023-07-20T03:17:54;14.70;99.90
46652;DHT22;32377;52.182;5.398;2023-07-20T03:20:20;14.70;99.90
46652;DHT22;32377;52.182;5.398;2023-07-20T03:22:46;14.70;99.90
46652;DHT22;32377;52.182;5.398;2023-07-20T03:25:11;14.70;99.90
46652;DHT22;32377;52.182;5.398;2023-07-20T03:27:37;14.70;99.90
46652;DHT22;32377;52.182;5.398;2023-07-20T03:30:03;14.70;99.90
46652;DHT22;32377;52.182;5.398;2023-07-20T03:32:29;14.70;99.90
46652;DHT22;32377;52.182;5.398;2023-07-20T03:34:54;14.70;99.90
46652;DHT22;32377;52.182;5.398;2023-07-20T03:37:20;14.70;99.90
46652;DHT22;32377;52.182;5.398;2023-07-20T03:39:46;14.80;99.90
46652;DHT22;32377;52.182;5.398;2023-07-20T03:42:11;14.70;99.90
46652;DHT22;32377;52.182;5.398;2023-07-20T03:44:37;14.70;99.90
46652;DHT22;32377;52.182;5.398;2023-07-20T03:47:03;14.70;99.90
46652;DHT22;32377;52.182;5.398;2023-07-20T03:49:30;14.70;99.90
46652;DHT22;32377;52.182;5.398;2023-07-20T03:51:55;14.70;99.90
46652;DHT22;32377;52.182;5.398;2023-07-20T03:54:21;14.70;99.90
46652;DHT22;32377;52.182;5.398;2023-07-20T03:58:52;14.60;99.90
46652;DHT22;32377;52.182;5.398;2023-07-20T04:01:18;14.60;99.90
46652;DHT22;32377;52.182;5.398;2023-07-20T04:03:43;14.50;99.90
46652;DHT22;32377;52.182;5.398;2023-07-20T04:06:09;14.60;99.90
46652;DHT22;32377;52.182;5.398;2023-07-20T04:08:36;14.60;99.90
46652;DHT22;32377;52.182;5.398;2023-07-20T04:11:02;14.70;99.90
46652;DHT22;32377;52.182;5.398;2023-07-20T04:13:28;14.70;99.90
46652;DHT22;32377;52.182;5.398;2023-07-20T04:15:54;14.70;99.90
46652;DHT22;32377;52.182;5.398;2023-07-20T04:18:20;14.80;99.90
46652;DHT22;32377;52.182;5.398;2023-07-20T04:20:46;14.80;99.90
46652;DHT22;32377;52.182;5.398;2023-07-20T04:23:12;14.80;99.90
46652;DHT22;32377;52.182;5.398;2023-07-20T04:25:39;14.80;99.90
46652;DHT22;32377;52.182;5.398;2023-07-20T04:28:07;14.80;99.90
46652;DHT22;32377;52.182;5.398;2023-07-20T04:30:37;14.80;99.90
46652;DHT22;32377;52.182;5.398;2023-07-20T04:33:03;14.70;99.90
46652;DHT22;32377;52.182;5.398;2023-07-20T04:35:53;14.70;99.90
46652;DHT22;32377;52.182;5.398;2023-07-20T04:38:19;14.70;99.90
46652;DHT22;32377;52.182;5.398;2023-07-20T04:40:47;14.60;99.90
46652;DHT22;32377;52.182;5.398;2023-07-20T04:43:13;14.70;99.90
46652;DHT22;32377;52.182;5.398;2023-07-20T04:45:39;14.60;99.90
46652;DHT22;32377;52.182;5.398;2023-07-20T04:48:16;14.60;99.90
46652;DHT22;32377;52.182;5.398;2023-07-20T04:50:44;14.70;99.90
46652;DHT22;32377;52.182;5.398;2023-07-20T04:53:13;14.70;99.90
46652;DHT22;32377;52.182;5.398;2023-07-20T04:55:39;14.80;99.90
46652;DHT22;32377;52.182;5.398;2023-07-20T04:58:06;14.80;99.90
46652;DHT22;32377;52.182;5.398;2023-07-20T05:00:37;14.90;99.90
46652;DHT22;32377;52.182;5.398;2023-07-20T05:03:03;15.00;99.90
46652;DHT22;32377;52.182;5.398;2023-07-20T05:05:30;15.10;99.90
46652;DHT22;32377;52.182;5.398;2023-07-20T05:07:57;15.20;99.90
46652;DHT22;32377;52.182;5.398;2023-07-20T05:10:23;15.30;99.90
46652;DHT22;32377;52.182;5.398;2023-07-20T05:12:49;15.30;99.90
46652;DHT22;32377;52.182;5.398;2023-07-20T05:15:15;15.40;99.90
46652;DHT22;32377;52.182;5.398;2023-07-20T05:17:40;15.60;99.90
46652;DHT22;32377;52.182;5.398;2023-07-20T05:20:06;15.60;99.90
46652;DHT22;32377;52.182;5.398;2023-07-20T05:22:32;15.70;99.90
46652;DHT22;32377;52.182;5.398;2023-07-20T05:24:59;15.90;99.90
46652;DHT22;32377;52.182;5.398;2023-07-20T05:27:24;15.90;99.90
46652;DHT22;32377;52.182;5.398;2023-07-20T05:29:50;16.00;99.90
46652;DHT22;32377;52.182;5.398;2023-07-20T05:32:16;16.00;99.90
46652;DHT22;32377;52.182;5.398;2023-07-20T05:34:41;16.10;99.90
46652;DHT22;32377;52.182;5.398;2023-07-20T05:37:07;16.30;99.90
46652;DHT22;32377;52.182;5.398;2023-07-20T05:39:33;16.30;99.90
46652;DHT22;32377;52.182;5.398;2023-07-20T05:41:58;16.30;99.90
46652;DHT22;32377;52.182;5.398;2023-07-20T05:44:24;16.40;99.90
46652;DHT22;32377;52.182;5.398;2023-07-20T05:46:50;16.40;99.90
46652;DHT22;32377;52.182;5.398;2023-07-20T05:49:15;16.50;99.90
46652;DHT22;32377;52.182;5.398;2023-07-20T05:51:41;16.50;99.90
46652;DHT22;32377;52.182;5.398;2023-07-20T05:54:06;16.50;99.90
46652;DHT22;32377;52.182;5.398;2023-07-20T05:56:32;16.70;99.90
46652;DHT22;32377;52.182;5.398;2023-07-20T05:58:57;16.70;99.90
46652;DHT22;32377;52.182;5.398;2023-07-20T06:01:23;16.80;99.90
46652;DHT22;32377;52.182;5.398;2023-07-20T06:03:52;16.70;99.90
46652;DHT22;32377;52.182;5.398;2023-07-20T06:06:19;16.80;99.90
46652;DHT22;32377;52.182;5.398;2023-07-20T06:08:44;16.90;99.90
46652;DHT22;32377;52.182;5.398;2023-07-20T06:11:10;17.00;99.90
46652;DHT22;32377;52.182;5.398;2023-07-20T06:13:35;17.00;99.90
46652;DHT22;32377;52.182;5.398;2023-07-20T06:16:01;16.80;99.90
46652;DHT22;32377;52.182;5.398;2023-07-20T06:18:27;16.90;99.90
46652;DHT22;32377;52.182;5.398;2023-07-20T06:20:53;17.10;99.90
46652;DHT22;32377;52.182;5.398;2023-07-20T06:23:19;17.30;99.90
46652;DHT22;32377;52.182;5.398;2023-07-20T06:25:44;17.30;99.90
46652;DHT22;32377;52.182;5.398;2023-07-20T06:28:10;17.40;99.90
46652;DHT22;32377;52.182;5.398;2023-07-20T06:30:36;17.50;99.90
46652;DHT22;32377;52.182;5.398;2023-07-20T06:33:02;17.50;99.90
46652;DHT22;32377;52.182;5.398;2023-07-20T06:35:27;17.50;99.90
46652;DHT22;32377;52.182;5.398;2023-07-20T06:37:53;17.60;99.90
46652;DHT22;32377;52.182;5.398;2023-07-20T06:40:19;17.70;99.90
46652;DHT22;32377;52.182;5.398;2023-07-20T06:42:44;17.60;99.90
46652;DHT22;32377;52.182;5.398;2023-07-20T06:45:10;17.40;99.90
46652;DHT22;32377;52.182;5.398;2023-07-20T06:47:38;17.40;99.90
46652;DHT22;32377;52.182;5.398;2023-07-20T06:50:06;17.40;99.90
46652;DHT22;32377;52.182;5.398;2023-07-20T06:52:32;17.40;99.90
46652;DHT22;32377;52.182;5.398;2023-07-20T06:54:57;17.30;99.90
46652;DHT22;32377;52.182;5.398;2023-07-20T06:57:23;17.30;99.90
46652;DHT22;32377;52.182;5.398;2023-07-20T06:59:49;17.40;99.90
46652;DHT22;32377;52.182;5.398;2023-07-20T07:02:14;17.30;99.90
46652;DHT22;32377;52.182;5.398;2023-07-20T07:04:40;17.30;99.90
46652;DHT22;32377;52.182;5.398;2023-07-20T07:07:06;17.20;99.90
46652;DHT22;32377;52.182;5.398;2023-07-20T07:09:31;17.20;99.90
46652;DHT22;32377;52.182;5.398;2023-07-20T07:11:57;17.20;99.90
46652;DHT22;32377;52.182;5.398;2023-07-20T07:14:23;17.30;99.90
46652;DHT22;32377;52.182;5.398;2023-07-20T07:16:48;17.60;99.90
46652;DHT22;32377;52.182;5.398;2023-07-20T07:19:14;18.10;99.90
46652;DHT22;32377;52.182;5.398;2023-07-20T07:21:39;18.40;99.90
46652;DHT22;32377;52.182;5.398;2023-07-20T07:24:05;18.70;99.90
46652;DHT22;32377;52.182;5.398;2023-07-20T07:26:33;18.70;99.90
46652;DHT22;32377;52.182;5.398;2023-07-20T07:28:59;18.80;99.90
46652;DHT22;32377;52.182;5.398;2023-07-20T07:31:29;18.90;99.90
46652;DHT22;32377;52.182;5.398;2023-07-20T07:33:56;19.00;99.90
46652;DHT22;32377;52.182;5.398;2023-07-20T07:36:21;18.90;99.90
46652;DHT22;32377;52.182;5.398;2023-07-20T07:38:47;18.90;99.90
46652;DHT22;32377;52.182;5.398;2023-07-20T07:41:13;18.80;99.90
46652;DHT22;32377;52.182;5.398;2023-07-20T07:43:39;18.60;99.90
46652;DHT22;32377;52.182;5.398;2023-07-20T07:46:05;18.50;99.90
46652;DHT22;32377;52.182;5.398;2023-07-20T07:48:30;18.70;99.90
46652;DHT22;32377;52.182;5.398;2023-07-20T07:50:56;18.60;99.90
46652;DHT22;32377;52.182;5.398;2023-07-20T07:53:21;18.70;99.90
46652;DHT22;32377;52.182;5.398;2023-07-20T07:55:48;18.70;99.90
46652;DHT22;32377;52.182;5.398;2023-07-20T07:58:14;19.00;99.90
46652;DHT22;32377;52.182;5.398;2023-07-20T08:00:39;19.00;99.90
46652;DHT22;32377;52.182;5.398;2023-07-20T08:03:08;19.00;99.90
46652;DHT22;32377;52.182;5.398;2023-07-20T08:05:34;19.00;99.90
46652;DHT22;32377;52.182;5.398;2023-07-20T08:08:01;19.00;99.90
46652;DHT22;32377;52.182;5.398;2023-07-20T08:10:27;19.20;99.90
46652;DHT22;32377;52.182;5.398;2023-07-20T08:12:52;19.30;99.90
46652;DHT22;32377;52.182;5.398;2023-07-20T08:15:18;19.40;99.90
46652;DHT22;32377;52.182;5.398;2023-07-20T08:17:44;19.30;99.90
46652;DHT22;32377;52.182;5.398;2023-07-20T08:20:10;19.30;99.90
46652;DHT22;32377;52.182;5.398;2023-07-20T08:22:39;19.20;98.40
46652;DHT22;32377;52.182;5.398;2023-07-20T08:25:08;19.30;99.10
46652;DHT22;32377;52.182;5.398;2023-07-20T08:27:34;19.50;98.50
46652;DHT22;32377;52.182;5.398;2023-07-20T08:30:00;19.50;95.20
46652;DHT22;32377;52.182;5.398;2023-07-20T08:32:26;19.40;95.30
46652;DHT22;32377;52.182;5.398;2023-07-20T08:34:52;19.40;94.90
46652;DHT22;32377;52.182;5.398;2023-07-20T08:37:18;19.40;94.30
46652;DHT22;32377;52.182;5.398;2023-07-20T08:39:43;19.40;93.10
46652;DHT22;32377;52.182;5.398;2023-07-20T08:42:09;19.50;92.00
46652;DHT22;32377;52.182;5.398;2023-07-20T08:44:38;19.80;94.40
46652;DHT22;32377;52.182;5.398;2023-07-20T08:47:05;19.80;90.00
46652;DHT22;32377;52.182;5.398;2023-07-20T08:49:32;20.10;92.30
46652;DHT22;32377;52.182;5.398;2023-07-20T08:51:59;20.20;92.10
46652;DHT22;32377;52.182;5.398;2023-07-20T08:54:30;20.30;92.50
46652;DHT22;32377;52.182;5.398;2023-07-20T08:57:03;20.20;94.50
46652;DHT22;32377;52.182;5.398;2023-07-20T08:59:30;20.10;95.40
46652;DHT22;32377;52.182;5.398;2023-07-20T09:02:00;20.10;96.70
46652;DHT22;32377;52.182;5.398;2023-07-20T09:04:25;20.10;96.60
46652;DHT22;32377;52.182;5.398;2023-07-20T09:06:51;20.40;96.10
46652;DHT22;32377;52.182;5.398;2023-07-20T09:09:17;20.40;96.20
46652;DHT22;32377;52.182;5.398;2023-07-20T09:11:46;20.50;96.90
46652;DHT22;32377;52.182;5.398;2023-07-20T09:14:12;20.70;95.90
46652;DHT22;32377;52.182;5.398;2023-07-20T09:16:53;20.60;95.80
46652;DHT22;32377;52.182;5.398;2023-07-20T09:19:19;20.40;95.40
46652;DHT22;32377;52.182;5.398;2023-07-20T09:21:49;20.10;96.60
46652;DHT22;32377;52.182;5.398;2023-07-20T09:24:19;19.90;96.70
46652;DHT22;32377;52.182;5.398;2023-07-20T09:26:46;20.00;95.80
46652;DHT22;32377;52.182;5.398;2023-07-20T09:29:19;20.30;94.30
46652;DHT22;32377;52.182;5.398;2023-07-20T09:32:03;20.20;94.40
46652;DHT22;32377;52.182;5.398;2023-07-20T09:34:32;20.50;94.10
46652;DHT22;32377;52.182;5.398;2023-07-20T09:36:59;20.70;94.30
46652;DHT22;32377;52.182;5.398;2023-07-20T09:39:25;20.80;94.30
46652;DHT22;32377;52.182;5.398;2023-07-20T09:41:51;20.90;94.50
46652;DHT22;32377;52.182;5.398;2023-07-20T09:44:17;21.10;96.60
46652;DHT22;32377;52.182;5.398;2023-07-20T09:49:09;21.50;93.50
46652;DHT22;32377;52.182;5.398;2023-07-20T09:51:35;21.10;93.60
46652;DHT22;32377;52.182;5.398;2023-07-20T09:54:02;20.50;94.10
46652;DHT22;32377;52.182;5.398;2023-07-20T09:58:52;20.10;93.70
46652;DHT22;32377;52.182;5.398;2023-07-20T10:01:20;19.90;94.00
46652;DHT22;32377;52.182;5.398;2023-07-20T10:03:47;19.80;94.60
46652;DHT22;32377;52.182;5.398;2023-07-20T10:06:23;19.60;96.00
46652;DHT22;32377;52.182;5.398;2023-07-20T10:08:52;19.60;95.90
46652;DHT22;32377;52.182;5.398;2023-07-20T10:11:21;19.90;96.10
46652;DHT22;32377;52.182;5.398;2023-07-20T10:13:49;20.40;95.10
46652;DHT22;32377;52.182;5.398;2023-07-20T10:16:29;20.50;92.90
46652;DHT22;32377;52.182;5.398;2023-07-20T10:21:29;21.30;93.00
46652;DHT22;32377;52.182;5.398;2023-07-20T10:23:59;21.50;93.40
46652;DHT22;32377;52.182;5.398;2023-07-20T10:26:26;21.70;93.20
46652;DHT22;32377;52.182;5.398;2023-07-20T10:28:53;21.90;92.60
46652;DHT22;32377;52.182;5.398;2023-07-20T10:31:19;21.60;93.30
46652;DHT22;32377;52.182;5.398;2023-07-20T10:33:46;21.50;94.50
46652;DHT22;32377;52.182;5.398;2023-07-20T10:36:12;21.70;94.10
46652;DHT22;32377;52.182;5.398;2023-07-20T10:41:29;22.00;92.10
46652;DHT22;32377;52.182;5.398;2023-07-20T10:44:06;21.80;91.10
46652;DHT22;32377;52.182;5.398;2023-07-20T10:49:05;21.70;92.10
46652;DHT22;32377;52.182;5.398;2023-07-20T10:51:42;21.80;91.90
46652;DHT22;32377;52.182;5.398;2023-07-20T10:54:33;22.00;92.90
46652;DHT22;32377;52.182;5.398;2023-07-20T10:57:22;22.10;91.90
46652;DHT22;32377;52.182;5.398;2023-07-20T10:59:48;22.20;92.20
46652;DHT22;32377;52.182;5.398;2023-07-20T11:02:18;22.40;92.10
46652;DHT22;32377;52.182;5.398;2023-07-20T11:04:45;22.30;91.20
46652;DHT22;32377;52.182;5.398;2023-07-20T11:07:15;21.90;91.40
46652;DHT22;32377;52.182;5.398;2023-07-20T11:09:42;21.90;91.00
46652;DHT22;32377;52.182;5.398;2023-07-20T11:12:13;22.00;91.50
46652;DHT22;32377;52.182;5.398;2023-07-20T11:14:54;22.20;91.30
46652;DHT22;32377;52.182;5.398;2023-07-20T11:17:29;22.30;90.10
46652;DHT22;32377;52.182;5.398;2023-07-20T11:19:56;22.50;91.10
46652;DHT22;32377;52.182;5.398;2023-07-20T11:22:22;22.60;91.00
46652;DHT22;32377;52.182;5.398;2023-07-20T11:24:48;22.60;90.00
46652;DHT22;32377;52.182;5.398;2023-07-20T11:27:17;22.80;91.00
46652;DHT22;32377;52.182;5.398;2023-07-20T11:29:47;22.50;90.30
46652;DHT22;32377;52.182;5.398;2023-07-20T11:32:20;22.30;90.50
46652;DHT22;32377;52.182;5.398;2023-07-20T11:34:47;22.40;90.40
46652;DHT22;32377;52.182;5.398;2023-07-20T11:37:13;22.30;90.00
46652;DHT22;32377;52.182;5.398;2023-07-20T11:39:39;22.20;90.70
46652;DHT22;32377;52.182;5.398;2023-07-20T11:42:05;22.50;90.00
46652;DHT22;32377;52.182;5.398;2023-07-20T11:44:32;22.50;88.20
46652;DHT22;32377;52.182;5.398;2023-07-20T11:47:09;22.60;90.20
46652;DHT22;32377;52.182;5.398;2023-07-20T11:49:36;22.60;87.40
46652;DHT22;32377;52.182;5.398;2023-07-20T11:52:04;22.80;87.20
46652;DHT22;32377;52.182;5.398;2023-07-20T11:54:30;23.00;88.00
46652;DHT22;32377;52.182;5.398;2023-07-20T11:57:00;23.10;84.50
46652;DHT22;32377;52.182;5.398;2023-07-20T11:59:25;23.00;81.20
46652;DHT22;32377;52.182;5.398;2023-07-20T12:01:52;22.70;80.70
46652;DHT22;32377;52.182;5.398;2023-07-20T12:04:18;22.60;84.60
46652;DHT22;32377;52.182;5.398;2023-07-20T12:06:45;22.50;84.00
46652;DHT22;32377;52.182;5.398;2023-07-20T12:09:14;22.50;82.80
46652;DHT22;32377;52.182;5.398;2023-07-20T12:11:43;22.70;86.10
46652;DHT22;32377;52.182;5.398;2023-07-20T12:14:09;23.00;88.00
46652;DHT22;32377;52.182;5.398;2023-07-20T12:16:36;22.70;84.10
46652;DHT22;32377;52.182;5.398;2023-07-20T12:21:30;22.90;88.00
46652;DHT22;32377;52.182;5.398;2023-07-20T12:23:58;22.80;85.70
46652;DHT22;32377;52.182;5.398;2023-07-20T12:26:24;22.80;87.70
46652;DHT22;32377;52.182;5.398;2023-07-20T12:28:50;23.00;87.20
46652;DHT22;32377;52.182;5.398;2023-07-20T12:31:16;23.00;87.00
46652;DHT22;32377;52.182;5.398;2023-07-20T12:33:42;23.00;82.30
46652;DHT22;32377;52.182;5.398;2023-07-20T12:36:09;22.60;82.40
46652;DHT22;32377;52.182;5.398;2023-07-20T12:38:35;22.60;86.30
46652;DHT22;32377;52.182;5.398;2023-07-20T12:41:02;22.50;82.80
46652;DHT22;32377;52.182;5.398;2023-07-20T12:43:27;22.50;85.40
46652;DHT22;32377;52.182;5.398;2023-07-20T12:45:54;22.80;85.70
46652;DHT22;32377;52.182;5.398;2023-07-20T12:48:20;22.80;83.80
46652;DHT22;32377;52.182;5.398;2023-07-20T12:50:46;22.80;82.70
46652;DHT22;32377;52.182;5.398;2023-07-20T12:53:12;22.80;83.90
46652;DHT22;32377;52.182;5.398;2023-07-20T12:55:38;22.60;85.90
46652;DHT22;32377;52.182;5.398;2023-07-20T12:58:04;22.40;87.70
46652;DHT22;32377;52.182;5.398;2023-07-20T13:00:30;22.40;88.40
46652;DHT22;32377;52.182;5.398;2023-07-20T13:02:57;22.30;88.40
46652;DHT22;32377;52.182;5.398;2023-07-20T13:05:23;22.30;88.90
46652;DHT22;32377;52.182;5.398;2023-07-20T13:07:49;22.20;87.60
46652;DHT22;32377;52.182;5.398;2023-07-20T13:10:14;22.20;87.10
46652;DHT22;32377;52.182;5.398;2023-07-20T13:12:40;22.40;87.00
46652;DHT22;32377;52.182;5.398;2023-07-20T13:15:08;22.40;88.80
46652;DHT22;32377;52.182;5.398;2023-07-20T13:17:35;22.60;87.70
46652;DHT22;32377;52.182;5.398;2023-07-20T13:20:02;22.50;88.70
46652;DHT22;32377;52.182;5.398;2023-07-20T13:22:30;22.60;90.00
46652;DHT22;32377;52.182;5.398;2023-07-20T13:24:55;22.80;90.70
46652;DHT22;32377;52.182;5.398;2023-07-20T13:27:21;23.20;90.00
46652;DHT22;32377;52.182;5.398;2023-07-20T13:29:47;23.50;90.10
46652;DHT22;32377;52.182;5.398;2023-07-20T13:32:14;23.20;87.80
46652;DHT22;32377;52.182;5.398;2023-07-20T13:34:44;23.10;89.80
46652;DHT22;32377;52.182;5.398;2023-07-20T13:37:13;22.80;90.50
46652;DHT22;32377;52.182;5.398;2023-07-20T13:39:39;22.50;90.00
46652;DHT22;32377;52.182;5.398;2023-07-20T13:42:06;22.60;90.40
46652;DHT22;32377;52.182;5.398;2023-07-20T13:44:32;22.50;90.00
46652;DHT22;32377;52.182;5.398;2023-07-20T13:46:57;22.40;90.50
46652;DHT22;32377;52.182;5.398;2023-07-20T13:49:23;22.50;90.90
46652;DHT22;32377;52.182;5.398;2023-07-20T13:51:49;22.70;90.10
46652;DHT22;32377;52.182;5.398;2023-07-20T13:54:15;22.60;90.40
46652;DHT22;32377;52.182;5.398;2023-07-20T13:56:41;22.60;90.20
46652;DHT22;32377;52.182;5.398;2023-07-20T13:59:06;22.60;90.10
46652;DHT22;32377;52.182;5.398;2023-07-20T14:01:32;22.60;91.00
46652;DHT22;32377;52.182;5.398;2023-07-20T14:04:01;22.50;90.60
46652;DHT22;32377;52.182;5.398;2023-07-20T14:06:29;22.40;91.50
46652;DHT22;32377;52.182;5.398;2023-07-20T14:08:55;22.50;91.50
46652;DHT22;32377;52.182;5.398;2023-07-20T14:11:20;22.60;90.80
46652;DHT22;32377;52.182;5.398;2023-07-20T14:13:46;22.80;91.40
46652;DHT22;32377;52.182;5.398;2023-07-20T14:16:12;23.00;90.80
46652;DHT22;32377;52.182;5.398;2023-07-20T14:18:37;23.30;90.80
46652;DHT22;32377;52.182;5.398;2023-07-20T14:21:03;23.10;90.70
46652;DHT22;32377;52.182;5.398;2023-07-20T14:23:30;23.20;90.50
46652;DHT22;32377;52.182;5.398;2023-07-20T14:25:56;23.30;90.80
46652;DHT22;32377;52.182;5.398;2023-07-20T14:28:21;23.50;90.50
46652;DHT22;32377;52.182;5.398;2023-07-20T14:30:47;23.30;89.70
46652;DHT22;32377;52.182;5.398;2023-07-20T14:33:13;23.60;91.60
46652;DHT22;32377;52.182;5.398;2023-07-20T14:35:38;23.60;91.00
46652;DHT22;32377;52.182;5.398;2023-07-20T14:38:04;23.60;90.60
46652;DHT22;32377;52.182;5.398;2023-07-20T14:40:29;23.50;90.70
46652;DHT22;32377;52.182;5.398;2023-07-20T14:42:56;23.50;91.30
46652;DHT22;32377;52.182;5.398;2023-07-20T14:45:22;23.60;91.60
46652;DHT22;32377;52.182;5.398;2023-07-20T14:47:47;23.50;90.30
46652;DHT22;32377;52.182;5.398;2023-07-20T14:50:20;23.70;90.40
46652;DHT22;32377;52.182;5.398;2023-07-20T14:52:46;23.80;89.80
46652;DHT22;32377;52.182;5.398;2023-07-20T14:55:12;23.80;90.10
46652;DHT22;32377;52.182;5.398;2023-07-20T14:57:37;23.60;89.10
46652;DHT22;32377;52.182;5.398;2023-07-20T15:00:04;23.30;90.00
46652;DHT22;32377;52.182;5.398;2023-07-20T15:02:33;23.10;90.50
46652;DHT22;32377;52.182;5.398;2023-07-20T15:04:59;23.20;90.90
46652;DHT22;32377;52.182;5.398;2023-07-20T15:07:25;23.20;90.70
46652;DHT22;32377;52.182;5.398;2023-07-20T15:09:51;23.20;91.00
46652;DHT22;32377;52.182;5.398;2023-07-20T15:12:16;23.50;91.50
46652;DHT22;32377;52.182;5.398;2023-07-20T15:14:43;23.20;90.60
46652;DHT22;32377;52.182;5.398;2023-07-20T15:17:10;23.20;91.30
46652;DHT22;32377;52.182;5.398;2023-07-20T15:19:36;23.20;90.90
46652;DHT22;32377;52.182;5.398;2023-07-20T15:22:03;23.20;91.70
46652;DHT22;32377;52.182;5.398;2023-07-20T15:24:29;23.30;90.80
46652;DHT22;32377;52.182;5.398;2023-07-20T15:26:55;23.30;90.40
46652;DHT22;32377;52.182;5.398;2023-07-20T15:29:21;23.20;91.70
46652;DHT22;32377;52.182;5.398;2023-07-20T15:31:47;23.00;91.20
46652;DHT22;32377;52.182;5.398;2023-07-20T15:34:13;23.00;91.30
46652;DHT22;32377;52.182;5.398;2023-07-20T15:36:40;23.00;90.90
46652;DHT22;32377;52.182;5.398;2023-07-20T15:39:06;23.00;91.20
46652;DHT22;32377;52.182;5.398;2023-07-20T15:41:32;23.10;91.10
46652;DHT22;32377;52.182;5.398;2023-07-20T15:43:58;23.00;90.40
46652;DHT22;32377;52.182;5.398;2023-07-20T15:49:04;22.70;91.30
46652;DHT22;32377;52.182;5.398;2023-07-20T15:51:30;22.60;91.70
46652;DHT22;32377;52.182;5.398;2023-07-20T15:53:56;22.40;92.10
46652;DHT22;32377;52.182;5.398;2023-07-20T15:58:51;22.60;91.60
46652;DHT22;32377;52.182;5.398;2023-07-20T16:01:16;22.60;92.00
46652;DHT22;32377;52.182;5.398;2023-07-20T16:03:42;22.50;91.90
46652;DHT22;32377;52.182;5.398;2023-07-20T16:06:08;22.50;92.30